createdAt,value
2022-10-08T00:01:16.363Z,12.88
2022-10-08T00:03:47.648Z,11.88
2022-10-08T00:06:18.264Z,12.55
2022-10-08T00:08:50.548Z,11.55
2022-10-08T00:11:21.441Z,12.27
2022-10-08T00:13:50.824Z,14.27
2022-10-08T00:16:30.516Z,14.27
2022-10-08T00:19:04.105Z,14.65
2022-10-08T00:21:36.676Z,17.55
2022-10-08T00:24:06.099Z,16.42
2022-10-08T00:26:39.737Z,16.02
2022-10-08T00:29:13.595Z,17.45
2022-10-08T00:31:44.099Z,17.13
2022-10-08T00:34:20.179Z,16.23
2022-10-08T00:36:51.666Z,17.17
2022-10-08T00:39:20.544Z,16.55
2022-10-08T00:41:52.548Z,17.65
2022-10-08T00:44:47.990Z,17.95
2022-10-08T00:47:33.183Z,17.88
2022-10-08T00:50:23.810Z,17.65
2022-10-08T00:53:10.784Z,18.42
2022-10-08T00:55:43.665Z,18.50
2022-10-08T00:58:31.283Z,19.75
2022-10-08T01:00:58.873Z,18.40
2022-10-08T01:03:26.414Z,19.75
2022-10-08T01:06:20.945Z,20.13
2022-10-08T01:09:09.658Z,19.83
2022-10-08T01:11:55.305Z,20.02
2022-10-08T01:14:45.232Z,19.13
2022-10-08T01:17:30.569Z,20.88
2022-10-08T01:20:00.544Z,19.33
2022-10-08T01:22:46.344Z,21.13
2022-10-08T01:25:32.908Z,21.15
2022-10-08T01:28:15.212Z,21.38
2022-10-08T01:30:50.861Z,20.92
2022-10-08T01:33:32.386Z,20.90
2022-10-08T01:36:02.755Z,21.25
2022-10-08T01:41:06.787Z,21.15
2022-10-08T01:43:38.437Z,22.30
2022-10-08T01:46:31.904Z,22.55
2022-10-08T01:49:07.623Z,22.63
2022-10-08T01:51:47.386Z,23.25
2022-10-08T01:54:17.123Z,23.20
2022-10-08T01:56:47.287Z,22.95
2022-10-08T01:59:23.226Z,22.38
2022-10-08T02:01:59.501Z,19.73
2022-10-08T02:04:34.729Z,21.88
2022-10-08T02:07:09.315Z,21.25
2022-10-08T02:09:42.233Z,21.88
2022-10-08T02:12:10.506Z,20.05
2022-10-08T02:14:44.785Z,20.67
2022-10-08T02:17:45.186Z,21.27
2022-10-08T02:20:47.864Z,21.30
2022-10-08T02:23:39.739Z,21.60
2022-10-08T02:26:14.837Z,20.23
2022-10-08T02:29:00.952Z,19.77
2022-10-08T02:31:43.150Z,21.15
2022-10-08T02:34:18.426Z,22.20
2022-10-08T02:36:54.306Z,22.50
2022-10-08T02:39:25.225Z,19.95
2022-10-08T02:41:57.183Z,18.50
2022-10-08T02:44:32.863Z,21.38
2022-10-08T02:47:04.804Z,21.40
2022-10-08T02:49:37.990Z,21.98
2022-10-08T02:52:08.145Z,21.45
2022-10-08T02:54:39.361Z,19.40
2022-10-08T02:57:22.150Z,21.77
2022-10-08T02:59:49.358Z,22.52
2022-10-08T03:02:37.417Z,21.60
2022-10-08T03:05:14.306Z,22.80
2022-10-08T03:07:42.425Z,22.15
2022-10-08T03:10:10.343Z,22.40
2022-10-08T03:12:37.555Z,22.08
2022-10-08T03:15:05.304Z,20.85
2022-10-08T03:17:37.824Z,21.55
2022-10-08T03:20:07.052Z,20.88
2022-10-08T03:22:34.753Z,20.50
2022-10-08T03:25:02.342Z,20.75
2022-10-08T03:27:29.784Z,21.17
2022-10-08T03:29:59.703Z,19.45
2022-10-08T03:32:27.545Z,19.48
2022-10-08T03:34:54.812Z,18.08
2022-10-08T03:37:22.217Z,19.05
2022-10-08T03:39:49.433Z,19.77
2022-10-08T03:42:16.470Z,17.95
2022-10-08T03:44:43.649Z,18.15
2022-10-08T03:47:10.932Z,19.52
2022-10-08T03:49:38.107Z,19.67
2022-10-08T03:52:05.475Z,18.90
2022-10-08T03:54:36.265Z,19.30
2022-10-08T03:57:04.623Z,19.00
2022-10-08T03:59:32.025Z,16.88
2022-10-08T04:01:59.217Z,18.65
2022-10-08T04:04:26.395Z,17.10
2022-10-08T04:06:53.403Z,18.42
2022-10-08T04:09:20.460Z,17.95
2022-10-08T04:11:47.508Z,17.98
2022-10-08T04:14:14.618Z,18.17
2022-10-08T04:16:41.918Z,16.85
2022-10-08T04:19:11.874Z,16.55
2022-10-08T04:21:39.105Z,17.17
2022-10-08T04:24:06.436Z,17.45
2022-10-08T04:26:33.619Z,17.27
2022-10-08T04:29:00.836Z,17.85
2022-10-08T04:31:27.992Z,17.45
2022-10-08T04:33:55.367Z,16.92
2022-10-08T04:36:24.718Z,17.30
2022-10-08T04:38:51.982Z,16.38
2022-10-08T04:41:22.925Z,16.67
2022-10-08T04:43:51.390Z,16.48
2022-10-08T04:46:21.022Z,15.95
2022-10-08T04:48:51.864Z,16.65
2022-10-08T04:51:19.714Z,15.60
2022-10-08T04:53:47.303Z,16.42
2022-10-08T04:56:19.874Z,16.40
2022-10-08T04:58:47.716Z,16.02
2022-10-08T05:01:17.816Z,16.90
2022-10-08T05:03:50.454Z,17.08
2022-10-08T05:06:20.475Z,16.20
2022-10-08T05:08:48.625Z,16.80
2022-10-08T05:11:16.946Z,17.45
2022-10-08T05:13:49.145Z,17.15
2022-10-08T05:16:18.534Z,18.85
2022-10-08T05:18:46.598Z,18.90
2022-10-08T05:21:16.905Z,20.35
2022-10-08T05:23:44.235Z,19.02
2022-10-08T05:26:16.815Z,19.38
2022-10-08T05:28:45.096Z,19.55
2022-10-08T05:31:12.433Z,20.23
2022-10-08T05:33:39.912Z,20.08
2022-10-08T05:36:16.258Z,19.30
2022-10-08T05:38:46.122Z,17.63
2022-10-08T05:41:16.335Z,17.40
2022-10-08T05:43:44.217Z,16.88
2022-10-08T05:46:12.304Z,16.00
2022-10-08T05:48:40.268Z,17.17
2022-10-08T05:51:13.550Z,16.20
2022-10-08T05:53:43.564Z,15.05
2022-10-08T05:56:12.873Z,15.85
2022-10-08T05:58:41.437Z,16.95
2022-10-08T06:01:20.481Z,19.10
2022-10-08T06:03:56.539Z,19.05
2022-10-08T06:06:24.903Z,18.70
2022-10-08T06:09:02.238Z,18.15
2022-10-08T06:11:31.899Z,16.50
2022-10-08T06:14:01.266Z,17.83
2022-10-08T06:16:30.232Z,19.70
2022-10-08T06:18:57.952Z,19.30
2022-10-08T06:21:27.233Z,19.50
2022-10-08T06:23:59.427Z,19.90
2022-10-08T06:26:35.627Z,20.17
2022-10-08T06:29:07.979Z,18.90
2022-10-08T06:31:36.109Z,17.92
2022-10-08T06:34:04.990Z,17.65
2022-10-08T06:36:33.864Z,18.25
2022-10-08T06:39:04.106Z,18.58
2022-10-08T06:41:33.436Z,18.25
2022-10-08T06:44:01.835Z,16.73
2022-10-08T06:46:31.488Z,17.48
2022-10-08T06:48:59.363Z,18.67
2022-10-08T06:51:26.675Z,19.95
2022-10-08T06:53:55.746Z,19.25
2022-10-08T06:56:24.741Z,18.13
2022-10-08T06:58:52.638Z,19.98
2022-10-08T07:01:29.110Z,19.40
2022-10-08T07:04:01.017Z,18.65
2022-10-08T07:06:28.713Z,18.33
2022-10-08T07:08:58.517Z,19.27
2022-10-08T07:11:26.989Z,18.67
2022-10-08T07:13:57.944Z,17.60
2022-10-08T07:16:26.866Z,19.13
2022-10-08T07:18:56.784Z,19.63
2022-10-08T07:21:24.425Z,19.25
2022-10-08T07:23:51.983Z,20.02
2022-10-08T07:26:27.183Z,19.27
2022-10-08T07:28:58.872Z,19.63
2022-10-08T07:31:34.349Z,18.35
2022-10-08T07:34:04.713Z,17.70
2022-10-08T07:36:32.628Z,19.85
2022-10-08T07:39:06.304Z,18.58
2022-10-08T07:41:33.794Z,19.58
2022-10-08T07:44:02.486Z,20.17
2022-10-08T07:46:31.399Z,18.80
2022-10-08T07:48:59.569Z,19.75
2022-10-08T07:51:27.809Z,18.40
2022-10-08T07:54:00.117Z,18.40
2022-10-08T07:56:29.828Z,14.68
2022-10-08T07:58:58.113Z,16.40
2022-10-08T08:01:30.308Z,16.25
2022-10-08T08:04:00.212Z,14.50
2022-10-08T08:06:27.379Z,13.88
2022-10-08T08:08:55.005Z,14.95
2022-10-08T08:11:24.887Z,13.85
2022-10-08T08:13:52.915Z,13.30
2022-10-08T08:16:25.812Z,13.88
2022-10-08T08:18:57.438Z,14.95
2022-10-08T08:21:28.108Z,13.63
2022-10-08T08:23:57.836Z,12.82
2022-10-08T08:26:30.427Z,12.45
2022-10-08T08:29:00.243Z,12.82
2022-10-08T08:31:29.875Z,14.38
2022-10-08T08:33:59.761Z,13.80
2022-10-08T08:36:30.264Z,14.30
2022-10-08T08:38:57.868Z,13.65
2022-10-08T08:41:40.929Z,13.65
2022-10-08T08:44:18.958Z,13.85
2022-10-08T08:47:04.630Z,12.38
2022-10-08T08:49:42.733Z,12.68
2022-10-08T08:52:14.894Z,13.05
2022-10-08T08:54:43.563Z,13.35
2022-10-08T08:57:25.067Z,14.07
2022-10-08T08:59:56.429Z,15.52
2022-10-08T09:02:29.077Z,14.48
2022-10-08T09:05:01.708Z,12.93
2022-10-08T09:07:39.446Z,13.38
2022-10-08T09:10:09.673Z,13.95
2022-10-08T09:12:47.247Z,13.13
2022-10-08T09:15:21.997Z,12.50
2022-10-08T09:17:54.479Z,12.15
2022-10-08T09:20:26.114Z,11.32
2022-10-08T09:22:54.421Z,11.45
2022-10-08T09:25:25.559Z,10.70
2022-10-08T09:28:04.525Z,10.88
2022-10-08T09:30:41.069Z,10.27
2022-10-08T09:33:08.463Z,9.98
2022-10-08T09:35:46.226Z,10.13
2022-10-08T09:38:39.165Z,10.10
2022-10-08T09:41:19.442Z,9.93
2022-10-08T09:44:10.548Z,9.52
2022-10-08T09:46:37.830Z,9.73
2022-10-08T09:49:34.183Z,9.73
2022-10-08T09:52:07.759Z,9.70
2022-10-08T09:54:41.906Z,9.30
2022-10-08T09:57:09.215Z,8.38
2022-10-08T09:59:48.424Z,9.43
2022-10-08T10:02:34.388Z,8.75
2022-10-08T10:05:04.739Z,9.20
2022-10-08T10:07:44.943Z,9.52
2022-10-08T10:10:33.307Z,9.52
2022-10-08T10:13:10.062Z,10.93
2022-10-08T10:15:43.861Z,10.15
2022-10-08T10:18:26.975Z,10.73
2022-10-08T10:21:01.856Z,10.73
2022-10-08T10:23:44.110Z,10.85
2022-10-08T10:26:18.165Z,11.35
2022-10-08T10:28:59.295Z,10.80
2022-10-08T10:31:44.517Z,10.05
2022-10-08T10:34:18.236Z,10.63
2022-10-08T10:36:53.028Z,10.00
2022-10-08T10:39:42.019Z,9.40
2022-10-08T10:42:29.545Z,9.93
2022-10-08T10:44:58.885Z,9.93
2022-10-08T10:47:32.197Z,8.98
2022-10-08T10:50:02.334Z,9.45
2022-10-08T10:52:48.000Z,9.50
2022-10-08T10:55:40.428Z,9.85
2022-10-08T10:58:18.867Z,9.27
2022-10-08T11:01:16.689Z,7.85
2022-10-08T11:03:59.263Z,8.30
2022-10-08T11:07:00.662Z,8.10
2022-10-08T11:10:11.907Z,8.45
2022-10-08T11:12:51.716Z,7.15
2022-10-08T11:15:50.823Z,7.72
2022-10-08T11:18:53.159Z,7.60
2022-10-08T11:21:44.648Z,6.47
2022-10-08T11:24:49.076Z,6.95
2022-10-08T11:27:36.324Z,7.70
2022-10-08T11:30:14.905Z,6.32
2022-10-08T11:32:46.462Z,6.50
2022-10-08T11:35:31.912Z,6.63
2022-10-08T11:38:15.145Z,6.88
2022-10-08T11:40:46.757Z,6.38
2022-10-08T11:43:33.565Z,7.13
2022-10-08T11:46:29.002Z,7.53
2022-10-08T11:48:59.165Z,6.57
2022-10-08T11:51:26.316Z,6.40
2022-10-08T11:54:16.870Z,6.47
2022-10-08T11:56:47.475Z,6.65
2022-10-08T11:59:32.773Z,6.55
2022-10-08T12:02:07.638Z,6.95
2022-10-08T12:04:38.073Z,6.47
2022-10-08T12:10:08.306Z,6.22
2022-10-08T12:13:00.074Z,6.40
2022-10-08T12:15:28.016Z,5.65
2022-10-08T12:18:26.329Z,5.35
2022-10-08T12:21:20.814Z,4.57
2022-10-08T12:23:47.932Z,4.22
2022-10-08T12:26:16.715Z,3.60
2022-10-08T12:28:43.954Z,2.70
2022-10-08T12:31:40.348Z,2.40
2022-10-08T12:34:17.667Z,2.50
2022-10-08T12:37:16.558Z,2.42
2022-10-08T12:39:47.548Z,1.92
2022-10-08T12:42:26.143Z,2.58
2022-10-08T12:45:08.703Z,2.42
2022-10-08T12:47:38.734Z,2.15
2022-10-08T12:50:24.203Z,2.42
2022-10-08T12:52:53.084Z,1.98
2022-10-08T12:55:23.582Z,2.13
2022-10-08T12:57:52.603Z,2.35
2022-10-08T13:00:26.108Z,2.50
2022-10-08T13:03:03.874Z,2.40
2022-10-08T13:05:34.343Z,2.28
2022-10-08T13:08:29.593Z,2.20
2022-10-08T13:10:58.845Z,1.90
2022-10-08T13:13:39.536Z,2.38
2022-10-08T13:16:08.762Z,2.53
2022-10-08T13:18:37.779Z,2.47
2022-10-08T13:21:10.543Z,2.33
2022-10-08T13:23:44.108Z,1.98
2022-10-08T13:26:43.837Z,2.00
2022-10-08T13:29:23.069Z,2.47
2022-10-08T13:32:12.107Z,2.13
2022-10-08T13:34:48.864Z,2.55
2022-10-08T13:37:38.319Z,2.30
2022-10-08T13:40:18.517Z,2.50
2022-10-08T13:42:52.745Z,2.50
2022-10-08T13:45:22.864Z,2.72
2022-10-08T13:47:51.190Z,2.58
2022-10-08T13:50:20.495Z,2.78
2022-10-08T13:52:57.573Z,3.28
2022-10-08T13:55:27.709Z,2.63
2022-10-08T13:57:56.237Z,3.17
2022-10-08T14:00:23.983Z,3.28
2022-10-08T14:02:54.073Z,3.50
2022-10-08T14:05:22.863Z,3.38
2022-10-08T14:08:00.031Z,3.03
2022-10-08T14:10:27.773Z,3.22
2022-10-08T14:12:55.033Z,2.97
2022-10-08T14:15:22.345Z,3.30
2022-10-08T14:17:53.626Z,3.20
2022-10-08T14:20:20.745Z,3.17
2022-10-08T14:22:48.143Z,2.78
2022-10-08T14:25:23.083Z,3.20
2022-10-08T14:27:51.091Z,3.83
2022-10-08T14:30:19.035Z,3.80
2022-10-08T14:32:46.810Z,3.60
2022-10-08T14:35:13.976Z,3.50
2022-10-08T14:37:41.513Z,3.67
2022-10-08T14:40:12.290Z,3.47
2022-10-08T14:42:39.611Z,3.42
2022-10-08T14:45:07.520Z,3.42
2022-10-08T14:47:34.735Z,3.53
2022-10-08T14:50:02.077Z,3.78
2022-10-08T14:52:29.185Z,3.97
2022-10-08T14:54:56.363Z,3.90
2022-10-08T14:57:23.515Z,4.05
2022-10-08T14:59:50.914Z,4.07
2022-10-08T15:02:18.167Z,3.83
2022-10-08T15:04:45.476Z,4.10
2022-10-08T15:07:12.553Z,4.70
2022-10-08T15:09:41.044Z,3.78
2022-10-08T15:12:08.508Z,4.18
2022-10-08T15:14:38.228Z,4.20
2022-10-08T15:17:05.747Z,3.90
2022-10-08T15:19:32.923Z,4.28
2022-10-08T15:21:59.948Z,3.70
2022-10-08T15:24:27.230Z,3.83
2022-10-08T15:26:54.864Z,4.65
2022-10-08T15:29:21.966Z,5.45
2022-10-08T15:31:52.879Z,3.88
2022-10-08T15:34:20.987Z,4.18
2022-10-08T15:36:48.453Z,3.58
2022-10-08T15:39:19.674Z,3.90
2022-10-08T15:41:49.989Z,3.63
2022-10-08T15:44:18.102Z,4.07
2022-10-08T15:46:50.715Z,3.75
2022-10-08T15:49:17.756Z,4.13
2022-10-08T15:51:44.794Z,4.90
2022-10-08T15:54:11.928Z,4.35
2022-10-08T15:56:39.064Z,4.20
2022-10-08T15:59:06.432Z,4.25
2022-10-08T16:01:33.737Z,4.45
2022-10-08T16:04:01.244Z,5.00
2022-10-08T16:06:34.566Z,4.80
2022-10-08T16:09:03.344Z,4.85
2022-10-08T16:11:35.189Z,5.15
2022-10-08T16:14:14.369Z,4.88
2022-10-08T16:16:42.930Z,5.57
2022-10-08T16:19:13.794Z,6.00
2022-10-08T16:21:41.228Z,5.15
2022-10-08T16:24:08.606Z,5.20
2022-10-08T16:26:37.313Z,5.03
2022-10-08T16:29:08.204Z,4.95
2022-10-08T16:31:37.303Z,4.35
2022-10-08T16:34:07.148Z,4.60
2022-10-08T16:36:36.751Z,5.05
2022-10-08T16:39:06.506Z,5.95
2022-10-08T16:41:35.782Z,5.90
2022-10-08T16:44:14.688Z,5.60
2022-10-08T16:46:45.350Z,6.68
2022-10-08T16:49:22.822Z,5.95
2022-10-08T16:51:52.444Z,5.75
2022-10-08T16:54:19.948Z,5.38
2022-10-08T16:56:47.875Z,5.10
2022-10-08T16:59:20.840Z,4.28
2022-10-08T17:01:51.020Z,3.30
2022-10-08T17:04:20.482Z,3.25
2022-10-08T17:06:48.115Z,3.33
2022-10-08T17:09:17.870Z,2.88
2022-10-08T17:11:45.234Z,2.80
2022-10-08T17:14:13.084Z,2.90
2022-10-08T17:16:43.337Z,3.15
2022-10-08T17:21:38.515Z,2.88
2022-10-08T17:24:06.392Z,3.03
2022-10-08T17:26:33.493Z,2.92
2022-10-08T17:29:09.785Z,2.72
2022-10-08T17:31:37.824Z,3.45
2022-10-08T17:34:06.026Z,3.00
2022-10-08T17:36:39.147Z,3.60
2022-10-08T17:39:09.306Z,3.30
2022-10-08T17:41:38.930Z,3.55
2022-10-08T17:44:08.522Z,5.15
2022-10-08T17:46:39.833Z,4.13
2022-10-08T17:49:07.206Z,4.00
2022-10-08T17:51:34.714Z,4.50
2022-10-08T17:54:07.863Z,4.80
2022-10-08T17:56:35.408Z,4.78
2022-10-08T17:59:03.347Z,5.50
2022-10-08T18:01:36.273Z,5.50
2022-10-08T18:04:08.759Z,5.10
2022-10-08T18:06:38.877Z,5.72
2022-10-08T18:09:08.545Z,5.68
2022-10-08T18:11:37.996Z,5.20
2022-10-08T18:14:07.024Z,4.80
2022-10-08T18:16:34.380Z,5.05
2022-10-08T18:19:06.197Z,5.70
2022-10-08T18:21:35.669Z,5.38
2022-10-08T18:24:03.314Z,5.30
2022-10-08T18:26:34.748Z,4.93
2022-10-08T18:29:05.277Z,4.88
2022-10-08T18:34:23.354Z,5.60
2022-10-08T18:36:50.545Z,5.38
2022-10-08T18:39:24.794Z,5.38
2022-10-08T18:41:55.707Z,4.82
2022-10-08T18:44:25.741Z,5.30
2022-10-08T18:46:54.027Z,5.15
2022-10-08T18:49:30.895Z,3.92
2022-10-08T18:51:58.913Z,4.68
2022-10-08T18:54:26.051Z,3.88
2022-10-08T18:56:53.266Z,4.30
2022-10-08T18:59:20.582Z,4.25
2022-10-08T19:01:48.740Z,3.88
2022-10-08T19:04:21.255Z,4.45
2022-10-08T19:06:49.913Z,4.75
2022-10-08T19:09:17.231Z,4.40
2022-10-08T19:11:50.024Z,4.40
2022-10-08T19:14:20.049Z,4.57
2022-10-08T19:16:48.074Z,5.32
2022-10-08T19:19:20.464Z,4.63
2022-10-08T19:21:48.553Z,4.70
2022-10-08T19:24:21.274Z,5.28
2022-10-08T19:26:49.685Z,4.80
2022-10-08T19:29:22.506Z,5.07
2022-10-08T19:31:50.469Z,5.90
2022-10-08T19:34:25.245Z,6.35
2022-10-08T19:36:53.095Z,6.18
2022-10-08T19:39:23.875Z,6.22
2022-10-08T19:41:51.348Z,7.05
2022-10-08T19:44:19.271Z,7.20
2022-10-08T19:46:46.853Z,6.35
2022-10-08T19:49:14.599Z,7.57
2022-10-08T19:51:42.064Z,7.72
2022-10-08T19:54:09.409Z,7.40
2022-10-08T19:56:36.984Z,7.97
2022-10-08T19:59:04.477Z,7.93
2022-10-08T20:01:35.139Z,7.47
2022-10-08T20:04:04.429Z,8.20
2022-10-08T20:06:34.948Z,8.15
2022-10-08T20:09:04.045Z,7.78
2022-10-08T20:11:32.798Z,7.60
2022-10-08T20:14:01.216Z,7.18
2022-10-08T20:16:35.413Z,6.88
2022-10-08T20:19:06.606Z,6.72
2022-10-08T20:21:37.259Z,5.70
2022-10-08T20:24:05.293Z,5.43
2022-10-08T20:26:35.504Z,5.70
2022-10-08T20:29:11.504Z,5.55
2022-10-08T20:31:50.494Z,5.25
2022-10-08T20:34:20.626Z,4.75
2022-10-08T20:36:48.972Z,4.72
2022-10-08T20:39:18.234Z,4.55
2022-10-08T20:41:45.785Z,5.15
2022-10-08T20:44:13.758Z,4.50
2022-10-08T20:46:41.350Z,4.90
2022-10-08T20:49:10.855Z,4.22
2022-10-08T20:51:40.318Z,3.88
2022-10-08T20:54:09.632Z,3.87
2022-10-08T20:56:40.051Z,3.50
2022-10-08T20:59:08.847Z,4.35
2022-10-08T21:01:38.574Z,4.05
2022-10-08T21:04:07.257Z,4.07
2022-10-08T21:06:43.831Z,4.30
2022-10-08T21:09:12.356Z,3.83
2022-10-08T21:11:40.194Z,3.58
2022-10-08T21:14:10.114Z,4.20
2022-10-08T21:16:39.958Z,3.58
2022-10-08T21:19:11.709Z,3.88
2022-10-08T21:21:39.615Z,3.67
2022-10-08T21:24:07.510Z,2.90
2022-10-08T21:26:39.773Z,3.38
2022-10-08T21:29:10.505Z,3.10
2022-10-08T21:31:39.812Z,2.78
2022-10-08T21:34:07.558Z,2.40
2022-10-08T21:36:39.027Z,2.28
2022-10-08T21:39:07.844Z,2.50
2022-10-08T21:41:37.153Z,2.40
2022-10-08T21:44:06.743Z,2.20
2022-10-08T21:46:36.901Z,1.90
2022-10-08T21:49:07.564Z,1.83
2022-10-08T21:51:35.442Z,2.35
2022-10-08T21:54:05.285Z,1.80
2022-10-08T21:56:35.033Z,1.80
2022-10-08T21:59:04.028Z,1.88
2022-10-08T22:01:46.625Z,1.90
2022-10-08T22:04:19.254Z,2.15
2022-10-08T22:06:49.063Z,1.88
2022-10-08T22:09:19.446Z,1.90
2022-10-08T22:14:14.570Z,2.10
2022-10-08T22:16:41.917Z,2.05
2022-10-08T22:19:09.589Z,2.20
2022-10-08T22:21:37.240Z,2.70
2022-10-08T22:24:04.870Z,2.40
2022-10-08T22:26:34.635Z,2.65
2022-10-08T22:29:02.325Z,2.53
2022-10-08T22:31:29.548Z,3.28
2022-10-08T22:33:56.884Z,2.80
2022-10-08T22:36:26.361Z,2.78
2022-10-08T22:38:54.557Z,3.23
2022-10-08T22:41:27.091Z,2.90
2022-10-08T22:43:54.266Z,3.65
2022-10-08T22:46:27.389Z,3.55
2022-10-08T22:49:03.271Z,3.78
2022-10-08T22:51:30.838Z,3.78
2022-10-08T22:53:58.593Z,3.47
2022-10-08T22:56:28.402Z,3.60
2022-10-08T22:58:56.437Z,3.80
2022-10-08T23:01:25.526Z,3.50
2022-10-08T23:03:53.833Z,2.80
2022-10-08T23:06:24.034Z,2.97
2022-10-08T23:08:57.467Z,3.05
2022-10-08T23:11:25.051Z,3.38
2022-10-08T23:13:53.843Z,3.47
2022-10-08T23:16:21.491Z,2.90
2022-10-08T23:18:56.668Z,3.08
2022-10-08T23:21:24.794Z,2.90
2022-10-08T23:23:53.974Z,2.97
2022-10-08T23:26:22.343Z,2.80
2022-10-08T23:28:58.422Z,2.78
2022-10-08T23:31:28.462Z,2.78
2022-10-08T23:33:56.473Z,2.47
2022-10-08T23:36:26.235Z,3.00
2022-10-08T23:38:53.640Z,3.00
2022-10-08T23:41:20.986Z,2.30
2022-10-08T23:43:49.706Z,2.53
2022-10-08T23:46:20.513Z,2.50
2022-10-08T23:48:49.013Z,2.72
2022-10-08T23:51:17.030Z,2.65
2022-10-08T23:53:45.144Z,3.08
2022-10-08T23:56:12.595Z,2.85
2022-10-08T23:58:40.128Z,2.90
